createdAt,value
2019-02-18T00:00:42.829Z,62.05
2019-02-18T00:05:48.104Z,61.79
2019-02-18T00:10:53.367Z,61.83
2019-02-18T00:15:59.440Z,61.75
2019-02-18T00:21:05.120Z,62.02
2019-02-18T00:26:10.720Z,61.99
2019-02-18T00:31:16.364Z,62.05
2019-02-18T00:36:21.619Z,62.07
2019-02-18T00:41:27.121Z,62.62
2019-02-18T00:46:32.313Z,63.05
2019-02-18T00:51:37.823Z,62.84
2019-02-18T00:56:43.175Z,62.97
2019-02-18T01:01:48.372Z,63.25
2019-02-18T01:06:53.638Z,63.74
2019-02-18T01:11:59.753Z,63.87
2019-02-18T01:17:05.058Z,63.85
2019-02-18T01:22:10.259Z,64.39
2019-02-18T01:27:15.424Z,64.60
2019-02-18T01:32:20.687Z,64.94
2019-02-18T01:37:26.207Z,65.60
2019-02-18T01:42:32.018Z,65.91
2019-02-18T01:47:37.965Z,65.76
2019-02-18T01:52:43.142Z,65.86
2019-02-18T01:57:48.860Z,65.96
2019-02-18T02:02:55.682Z,65.70
2019-02-18T02:08:00.952Z,65.51
2019-02-18T02:13:41.515Z,65.28
2019-02-18T02:18:46.693Z,65.73
2019-02-18T02:23:52.312Z,65.12
2019-02-18T02:28:57.570Z,65.05
2019-02-18T02:34:02.829Z,65.23
2019-02-18T02:39:08.424Z,65.22
2019-02-18T02:44:13.876Z,65.23
2019-02-18T02:49:20.110Z,65.08
2019-02-18T02:54:26.050Z,65.29
2019-02-18T02:59:31.228Z,65.41
2019-02-18T03:04:36.486Z,65.73
2019-02-18T03:09:41.943Z,65.77
2019-02-18T03:14:47.616Z,65.86
2019-02-18T03:19:52.792Z,65.35
2019-02-18T03:25:18.453Z,65.64
2019-02-18T03:30:33.964Z,65.74
2019-02-18T03:35:39.984Z,65.89
2019-02-18T03:40:45.505Z,66.02
2019-02-18T03:45:51.078Z,66.43
2019-02-18T03:50:56.411Z,67.38
2019-02-18T03:56:02.432Z,67.36
2019-02-18T04:01:07.595Z,67.50
2019-02-18T04:06:12.774Z,67.70
2019-02-18T04:11:18.675Z,67.31
2019-02-18T04:16:24.159Z,67.31
2019-02-18T04:21:29.324Z,66.40
2019-02-18T04:26:34.756Z,66.26
2019-02-18T04:31:40.273Z,66.88
2019-02-18T04:36:45.335Z,67.20
2019-02-18T04:41:50.421Z,67.58
2019-02-18T04:46:56.258Z,67.93
2019-02-18T04:52:01.316Z,68.27
2019-02-18T04:57:06.461Z,68.31
2019-02-18T05:02:11.873Z,68.45
2019-02-18T05:07:16.946Z,69.00
2019-02-18T05:12:22.086Z,69.76
2019-02-18T05:17:27.576Z,69.81
2019-02-18T05:22:33.094Z,70.25
2019-02-18T05:27:38.181Z,70.53
2019-02-18T05:32:43.600Z,71.26
2019-02-18T05:37:48.684Z,71.39
2019-02-18T05:42:54.695Z,71.77
2019-02-18T05:48:00.285Z,71.91
2019-02-18T05:53:05.521Z,72.37
2019-02-18T05:58:10.507Z,72.63
2019-02-18T06:03:16.415Z,72.46
2019-02-18T06:08:21.478Z,72.33
2019-02-18T06:13:26.812Z,72.79
2019-02-18T06:18:32.515Z,72.70
2019-02-18T06:23:37.938Z,72.07
2019-02-18T06:28:43.723Z,72.24
2019-02-18T06:33:49.208Z,71.30
2019-02-18T06:38:54.307Z,71.61
2019-02-18T06:44:00.038Z,71.34
2019-02-18T06:49:25.829Z,71.02
2019-02-18T06:54:31.254Z,71.29
2019-02-18T06:59:55.365Z,71.44
2019-02-18T07:05:23.956Z,71.56
2019-02-18T07:10:43.138Z,71.56
2019-02-18T07:15:48.569Z,71.60
2019-02-18T07:20:54.305Z,71.85
2019-02-18T07:25:59.298Z,72.02
2019-02-18T07:31:04.397Z,72.03
2019-02-18T07:36:09.891Z,72.28
2019-02-18T07:41:15.323Z,72.21
2019-02-18T07:46:21.036Z,72.23
2019-02-18T07:51:26.591Z,71.74
2019-02-18T07:56:31.741Z,71.34
2019-02-18T08:01:36.806Z,70.38
2019-02-18T08:06:43.157Z,69.33
2019-02-18T08:11:48.645Z,69.54
2019-02-18T08:16:54.133Z,68.12
2019-02-18T08:21:59.619Z,67.28
2019-02-18T08:27:04.866Z,66.29
2019-02-18T08:32:10.966Z,65.92
2019-02-18T08:37:16.262Z,65.47
2019-02-18T08:42:21.405Z,64.72
2019-02-18T08:47:26.437Z,63.96
2019-02-18T08:52:31.574Z,63.76
2019-02-18T08:57:37.141Z,61.96
2019-02-18T09:02:42.489Z,61.65
2019-02-18T09:07:47.657Z,61.71
2019-02-18T09:12:53.078Z,61.84
2019-02-18T09:17:58.307Z,60.83
2019-02-18T09:23:15.242Z,59.99
2019-02-18T09:28:20.714Z,58.37
2019-02-18T09:33:26.230Z,58.20
2019-02-18T09:38:32.215Z,56.47
2019-02-18T09:43:37.654Z,55.42
2019-02-18T09:48:43.800Z,55.30
2019-02-18T09:53:49.327Z,54.53
2019-02-18T09:58:54.558Z,53.83
2019-02-18T10:04:00.167Z,53.33
2019-02-18T10:09:07.141Z,52.56
2019-02-18T10:14:12.818Z,51.99
2019-02-18T10:19:18.041Z,51.34
2019-02-18T10:24:23.105Z,50.57
2019-02-18T10:29:28.576Z,51.90
2019-02-18T10:34:33.738Z,51.04
2019-02-18T10:39:38.901Z,50.26
2019-02-18T10:44:44.388Z,49.20
2019-02-18T10:49:49.683Z,49.21
2019-02-18T10:54:54.935Z,48.65
2019-02-18T11:00:00.407Z,48.83
2019-02-18T11:05:07.591Z,49.64
2019-02-18T11:10:13.981Z,47.59
2019-02-18T11:15:19.337Z,47.47
2019-02-18T11:20:24.676Z,46.14
2019-02-18T11:25:30.189Z,45.65
2019-02-18T11:30:35.808Z,44.37
2019-02-18T11:35:41.777Z,44.31
2019-02-18T11:40:47.052Z,43.72
2019-02-18T11:45:52.212Z,43.85
2019-02-18T11:50:57.374Z,42.79
2019-02-18T11:56:02.591Z,43.31
2019-02-18T12:01:08.824Z,41.80
2019-02-18T12:06:14.067Z,40.76
2019-02-18T12:11:19.442Z,40.17
2019-02-18T12:16:25.331Z,38.20
2019-02-18T12:21:30.767Z,38.16
2019-02-18T12:26:35.920Z,38.22
2019-02-18T12:31:40.994Z,37.73
2019-02-18T12:36:46.522Z,36.88
2019-02-18T12:41:53.106Z,37.23
2019-02-18T12:46:58.246Z,36.91
2019-02-18T12:52:04.130Z,35.65
2019-02-18T12:57:09.833Z,35.17
2019-02-18T13:02:14.988Z,34.63
2019-02-18T13:07:21.040Z,34.50
2019-02-18T13:12:27.481Z,35.60
2019-02-18T13:17:32.548Z,34.33
2019-02-18T13:22:38.416Z,33.78
2019-02-18T13:27:43.655Z,33.63
2019-02-18T13:32:49.263Z,32.93
2019-02-18T13:37:54.674Z,33.78
2019-02-18T13:43:00.138Z,33.11
2019-02-18T13:48:05.363Z,33.06
2019-02-18T13:53:10.600Z,33.26
2019-02-18T13:58:15.828Z,33.17
2019-02-18T14:03:20.970Z,31.92
2019-02-18T14:08:26.203Z,32.54
2019-02-18T14:13:31.707Z,31.43
2019-02-18T14:18:37.220Z,31.26
2019-02-18T14:23:43.439Z,30.56
2019-02-18T14:28:48.582Z,30.60
2019-02-18T14:33:55.665Z,30.93
2019-02-18T14:39:00.847Z,30.43
2019-02-18T14:44:08.101Z,30.97
2019-02-18T14:49:13.733Z,30.09
2019-02-18T14:54:19.458Z,30.65
2019-02-18T14:59:24.686Z,30.31
2019-02-18T15:04:29.820Z,29.07
2019-02-18T15:09:35.061Z,30.04
2019-02-18T15:14:40.215Z,31.40
2019-02-18T15:19:45.366Z,30.12
2019-02-18T15:24:50.521Z,28.85
2019-02-18T15:29:56.129Z,28.94
2019-02-18T15:35:03.105Z,28.81
2019-02-18T15:40:10.032Z,28.81
2019-02-18T15:45:15.877Z,29.44
2019-02-18T15:50:21.423Z,30.00
2019-02-18T15:55:28.612Z,30.27
2019-02-18T16:00:34.504Z,31.35
2019-02-18T16:05:40.691Z,31.37
2019-02-18T16:10:45.843Z,31.35
2019-02-18T16:15:51.327Z,32.67
2019-02-18T16:20:56.696Z,33.23
2019-02-18T16:26:02.805Z,33.63
2019-02-18T16:31:08.497Z,34.14
2019-02-18T16:36:13.745Z,34.42
2019-02-18T16:41:18.977Z,35.29
2019-02-18T16:46:24.243Z,36.20
2019-02-18T16:51:30.231Z,36.39
2019-02-18T16:56:35.447Z,36.88
2019-02-18T17:01:41.015Z,37.10
2019-02-18T17:06:46.591Z,37.81
2019-02-18T17:11:51.727Z,38.63
2019-02-18T17:16:56.965Z,38.88
2019-02-18T17:22:02.512Z,39.10
2019-02-18T17:27:08.036Z,40.18
2019-02-18T17:32:14.602Z,40.33
2019-02-18T17:37:20.389Z,40.49
2019-02-18T17:42:26.001Z,40.83
2019-02-18T17:47:31.204Z,41.53
2019-02-18T17:52:36.770Z,42.95
2019-02-18T17:57:41.904Z,44.40
2019-02-18T18:02:47.086Z,45.56
2019-02-18T18:07:52.336Z,45.14
2019-02-18T18:12:58.744Z,44.75
2019-02-18T18:18:04.035Z,44.69
2019-02-18T18:23:09.277Z,44.88
2019-02-18T18:28:14.562Z,45.31
2019-02-18T18:33:19.702Z,45.11
2019-02-18T18:38:24.952Z,46.01
2019-02-18T18:43:33.848Z,46.00
2019-02-18T18:48:37.209Z,46.89
2019-02-18T18:53:42.821Z,47.55
2019-02-18T18:58:48.162Z,48.36
2019-02-18T19:03:54.543Z,49.01
2019-02-18T19:09:01.462Z,49.88
2019-02-18T19:14:07.704Z,50.11
2019-02-18T19:19:12.960Z,49.93
2019-02-18T19:24:18.123Z,49.61
2019-02-18T19:29:24.181Z,50.63
2019-02-18T19:34:29.608Z,49.46
2019-02-18T19:39:34.781Z,49.30
2019-02-18T19:44:39.994Z,51.17
2019-02-18T19:49:46.001Z,50.73
2019-02-18T19:54:51.639Z,50.32
2019-02-18T19:59:56.858Z,50.15
2019-02-18T20:05:02.085Z,49.95
2019-02-18T20:10:08.143Z,49.88
2019-02-18T20:15:13.486Z,50.04
2019-02-18T20:20:18.958Z,50.16
2019-02-18T20:25:24.417Z,50.42
2019-02-18T20:30:29.950Z,51.01
2019-02-18T20:35:35.754Z,50.92
2019-02-18T20:40:41.505Z,51.77
2019-02-18T20:45:47.394Z,52.00
2019-02-18T20:50:52.685Z,51.63
2019-02-18T20:55:58.592Z,52.15
2019-02-18T21:01:03.907Z,51.94
2019-02-18T21:06:09.451Z,51.58
2019-02-18T21:11:17.506Z,52.64
2019-02-18T21:16:22.828Z,53.21
2019-02-18T21:21:28.185Z,53.10
2019-02-18T21:26:36.653Z,52.84
2019-02-18T21:31:41.826Z,53.21
2019-02-18T21:36:48.356Z,53.43
2019-02-18T21:41:54.388Z,53.46
2019-02-18T21:46:59.680Z,54.29
2019-02-18T21:52:06.273Z,53.51
2019-02-18T21:57:12.046Z,53.83
2019-02-18T22:02:19.141Z,55.23
2019-02-18T22:07:24.563Z,56.11
2019-02-18T22:12:30.647Z,56.58
2019-02-18T22:17:35.805Z,56.91
2019-02-18T22:22:41.608Z,56.93
2019-02-18T22:27:46.833Z,56.76
2019-02-18T22:32:52.055Z,57.04
2019-02-18T22:37:57.328Z,56.89
2019-02-18T22:43:02.556Z,57.54
2019-02-18T22:48:08.123Z,57.65
2019-02-18T22:53:14.127Z,58.19
2019-02-18T22:58:19.486Z,58.05
2019-02-18T23:03:24.757Z,57.82
2019-02-18T23:08:30.358Z,58.45
2019-02-18T23:13:35.958Z,58.55
2019-02-18T23:18:41.432Z,58.67
2019-02-18T23:23:46.980Z,58.70
2019-02-18T23:28:52.401Z,58.99
2019-02-18T23:33:57.547Z,58.56
2019-02-18T23:39:04.079Z,58.85
2019-02-18T23:44:10.402Z,58.42
2019-02-18T23:49:15.554Z,58.25
2019-02-18T23:54:22.220Z,57.91
2019-02-18T23:59:27.509Z,57.67
